sensor_id;sensor_type;location;lat;lon;timestamp;temperature;humidity
47813;DHT22;34221;45.296;9.516;2022-08-01T00:00:00;26.50;83.30
47813;DHT22;34221;45.296;9.516;2022-08-01T00:00:21;26.50;83.60
47813;DHT22;34221;45.296;9.516;2022-08-01T00:00:37;26.50;84.00
47813;DHT22;34221;45.296;9.516;2022-08-01T00:00:52;26.60;84.10
47813;DHT22;34221;45.296;9.516;2022-08-01T00:01:07;26.50;83.60
47813;DHT22;34221;45.296;9.516;2022-08-01T00:01:22;26.60;83.60
47813;DHT22;34221;45.296;9.516;2022-08-01T00:01:37;26.60;83.30
47813;DHT22;34221;45.296;9.516;2022-08-01T00:01:52;26.60;83.30
47813;DHT22;34221;45.296;9.516;2022-08-01T00:02:07;26.60;83.60
47813;DHT22;34221;45.296;9.516;2022-08-01T00:02:22;26.50;83.60
47813;DHT22;34221;45.296;9.516;2022-08-01T00:02:37;26.50;83.90
47813;DHT22;34221;45.296;9.516;2022-08-01T00:02:52;26.60;83.90
47813;DHT22;34221;45.296;9.516;2022-08-01T00:03:07;26.50;84.40
47813;DHT22;34221;45.296;9.516;2022-08-01T00:03:22;26.50;84.30
47813;DHT22;34221;45.296;9.516;2022-08-01T00:03:37;26.60;83.90
47813;DHT22;34221;45.296;9.516;2022-08-01T00:03:52;26.60;83.80
47813;DHT22;34221;45.296;9.516;2022-08-01T00:04:07;26.50;83.80
47813;DHT22;34221;45.296;9.516;2022-08-01T00:04:22;26.50;83.50
47813;DHT22;34221;45.296;9.516;2022-08-01T00:04:37;26.50;83.20
47813;DHT22;34221;45.296;9.516;2022-08-01T00:04:56;26.50;83.20
47813;DHT22;34221;45.296;9.516;2022-08-01T00:05:11;26.50;83.60
47813;DHT22;34221;45.296;9.516;2022-08-01T00:05:27;26.60;83.70
47813;DHT22;34221;45.296;9.516;2022-08-01T00:05:42;26.60;83.10
47813;DHT22;34221;45.296;9.516;2022-08-01T00:05:58;26.60;83.90
47813;DHT22;34221;45.296;9.516;2022-08-01T00:06:13;26.60;84.20
47813;DHT22;34221;45.296;9.516;2022-08-01T00:06:28;26.50;84.80
47813;DHT22;34221;45.296;9.516;2022-08-01T00:06:43;26.50;85.20
47813;DHT22;34221;45.296;9.516;2022-08-01T00:06:58;26.50;85.60
47813;DHT22;34221;45.296;9.516;2022-08-01T00:07:13;26.50;85.70
47813;DHT22;34221;45.296;9.516;2022-08-01T00:07:28;26.50;85.50
47813;DHT22;34221;45.296;9.516;2022-08-01T00:07:43;26.50;85.50
47813;DHT22;34221;45.296;9.516;2022-08-01T00:07:59;26.50;85.50
47813;DHT22;34221;45.296;9.516;2022-08-01T00:08:14;26.50;86.10
47813;DHT22;34221;45.296;9.516;2022-08-01T00:08:29;26.40;86.40
47813;DHT22;34221;45.296;9.516;2022-08-01T00:08:44;26.50;86.80
47813;DHT22;34221;45.296;9.516;2022-08-01T00:08:59;26.40;86.80
47813;DHT22;34221;45.296;9.516;2022-08-01T00:09:14;26.40;87.40
47813;DHT22;34221;45.296;9.516;2022-08-01T00:09:29;26.50;87.80
47813;DHT22;34221;45.296;9.516;2022-08-01T00:09:44;26.50;88.10
47813;DHT22;34221;45.296;9.516;2022-08-01T00:09:59;26.40;88.00
47813;DHT22;34221;45.296;9.516;2022-08-01T00:10:15;26.40;87.80
47813;DHT22;34221;45.296;9.516;2022-08-01T00:10:30;26.40;87.50
47813;DHT22;34221;45.296;9.516;2022-08-01T00:10:46;26.40;87.60
47813;DHT22;34221;45.296;9.516;2022-08-01T00:11:21;26.30;87.50
47813;DHT22;34221;45.296;9.516;2022-08-01T00:11:36;26.30;88.20
47813;DHT22;34221;45.296;9.516;2022-08-01T00:11:51;26.30;88.20
47813;DHT22;34221;45.296;9.516;2022-08-01T00:12:06;26.30;88.20
47813;DHT22;34221;45.296;9.516;2022-08-01T00:12:21;26.30;87.90
47813;DHT22;34221;45.296;9.516;2022-08-01T00:12:36;26.30;88.10
47813;DHT22;34221;45.296;9.516;2022-08-01T00:12:51;26.30;88.20
47813;DHT22;34221;45.296;9.516;2022-08-01T00:13:06;26.20;88.20
47813;DHT22;34221;45.296;9.516;2022-08-01T00:13:20;26.20;88.70
47813;DHT22;34221;45.296;9.516;2022-08-01T00:13:35;26.20;87.90
47813;DHT22;34221;45.296;9.516;2022-08-01T00:13:50;26.20;87.80
47813;DHT22;34221;45.296;9.516;2022-08-01T00:14:05;26.20;87.80
47813;DHT22;34221;45.296;9.516;2022-08-01T00:14:20;26.20;87.80
47813;DHT22;34221;45.296;9.516;2022-08-01T00:15:14;26.20;88.10
47813;DHT22;34221;45.296;9.516;2022-08-01T00:15:30;26.20;88.50
47813;DHT22;34221;45.296;9.516;2022-08-01T00:15:46;26.20;88.50
47813;DHT22;34221;45.296;9.516;2022-08-01T00:16:01;26.20;88.60
47813;DHT22;34221;45.296;9.516;2022-08-01T00:16:16;26.20;88.30
47813;DHT22;34221;45.296;9.516;2022-08-01T00:16:31;26.20;87.70
47813;DHT22;34221;45.296;9.516;2022-08-01T00:16:46;26.30;87.60
47813;DHT22;34221;45.296;9.516;2022-08-01T00:17:01;26.30;87.90
47813;DHT22;34221;45.296;9.516;2022-08-01T00:17:16;26.20;87.40
47813;DHT22;34221;45.296;9.516;2022-08-01T00:17:31;26.20;87.40
47813;DHT22;34221;45.296;9.516;2022-08-01T00:17:46;26.30;87.30
47813;DHT22;34221;45.296;9.516;2022-08-01T00:18:01;26.30;87.30
47813;DHT22;34221;45.296;9.516;2022-08-01T00:18:16;26.20;87.80
47813;DHT22;34221;45.296;9.516;2022-08-01T00:18:31;26.30;86.70
47813;DHT22;34221;45.296;9.516;2022-08-01T00:18:47;26.20;86.80
47813;DHT22;34221;45.296;9.516;2022-08-01T00:19:02;26.20;86.90
47813;DHT22;34221;45.296;9.516;2022-08-01T00:19:17;26.20;86.90
47813;DHT22;34221;45.296;9.516;2022-08-01T00:19:33;26.20;86.90
47813;DHT22;34221;45.296;9.516;2022-08-01T00:19:48;26.20;87.20
47813;DHT22;34221;45.296;9.516;2022-08-01T00:20:05;26.20;87.40
47813;DHT22;34221;45.296;9.516;2022-08-01T00:20:24;26.20;86.50
47813;DHT22;34221;45.296;9.516;2022-08-01T00:20:39;26.20;86.60
47813;DHT22;34221;45.296;9.516;2022-08-01T00:20:54;26.20;86.40
47813;DHT22;34221;45.296;9.516;2022-08-01T00:21:09;26.30;86.50
47813;DHT22;34221;45.296;9.516;2022-08-01T00:21:24;26.30;86.40
47813;DHT22;34221;45.296;9.516;2022-08-01T00:21:39;26.20;85.80
47813;DHT22;34221;45.296;9.516;2022-08-01T00:21:54;26.30;85.80
47813;DHT22;34221;45.296;9.516;2022-08-01T00:22:09;26.20;85.80
47813;DHT22;34221;45.296;9.516;2022-08-01T00:22:24;26.20;85.20
47813;DHT22;34221;45.296;9.516;2022-08-01T00:22:39;26.20;85.50
47813;DHT22;34221;45.296;9.516;2022-08-01T00:22:54;26.20;85.20
47813;DHT22;34221;45.296;9.516;2022-08-01T00:23:09;26.20;85.50
47813;DHT22;34221;45.296;9.516;2022-08-01T00:23:24;26.20;85.90
47813;DHT22;34221;45.296;9.516;2022-08-01T00:23:39;26.30;84.60
47813;DHT22;34221;45.296;9.516;2022-08-01T00:23:54;26.20;84.30
47813;DHT22;34221;45.296;9.516;2022-08-01T00:24:09;26.20;84.50
47813;DHT22;34221;45.296;9.516;2022-08-01T00:24:24;26.20;84.60
47813;DHT22;34221;45.296;9.516;2022-08-01T00:24:38;26.20;85.30
47813;DHT22;34221;45.296;9.516;2022-08-01T00:24:53;26.30;85.30
47813;DHT22;34221;45.296;9.516;2022-08-01T00:25:08;26.30;85.10
47813;DHT22;34221;45.296;9.516;2022-08-01T00:25:23;26.20;84.50
47813;DHT22;34221;45.296;9.516;2022-08-01T00:25:38;26.30;84.70
47813;DHT22;34221;45.296;9.516;2022-08-01T00:26:14;26.20;85.00
47813;DHT22;34221;45.296;9.516;2022-08-01T00:26:29;26.30;85.50
47813;DHT22;34221;45.296;9.516;2022-08-01T00:26:44;26.30;85.40
47813;DHT22;34221;45.296;9.516;2022-08-01T00:26:59;26.30;85.10
47813;DHT22;34221;45.296;9.516;2022-08-01T00:27:14;26.20;84.60
47813;DHT22;34221;45.296;9.516;2022-08-01T00:27:28;26.20;84.50
47813;DHT22;34221;45.296;9.516;2022-08-01T00:27:43;26.20;84.60
47813;DHT22;34221;45.296;9.516;2022-08-01T00:27:58;26.30;85.10
47813;DHT22;34221;45.296;9.516;2022-08-01T00:28:13;26.20;84.70
47813;DHT22;34221;45.296;9.516;2022-08-01T00:28:28;26.20;84.50
47813;DHT22;34221;45.296;9.516;2022-08-01T00:28:43;26.30;84.80
47813;DHT22;34221;45.296;9.516;2022-08-01T00:28:58;26.20;84.90
47813;DHT22;34221;45.296;9.516;2022-08-01T00:29:13;26.20;85.00
47813;DHT22;34221;45.296;9.516;2022-08-01T00:29:28;26.20;85.80
47813;DHT22;34221;45.296;9.516;2022-08-01T00:29:43;26.20;86.10
47813;DHT22;34221;45.296;9.516;2022-08-01T00:29:58;26.20;86.40
47813;DHT22;34221;45.296;9.516;2022-08-01T00:30:13;26.20;86.70
47813;DHT22;34221;45.296;9.516;2022-08-01T00:30:28;26.20;85.90
47813;DHT22;34221;45.296;9.516;2022-08-01T00:30:43;26.20;85.80
47813;DHT22;34221;45.296;9.516;2022-08-01T00:30:58;26.20;85.60
47813;DHT22;34221;45.296;9.516;2022-08-01T00:31:13;26.20;85.90
47813;DHT22;34221;45.296;9.516;2022-08-01T00:31:28;26.20;85.80
47813;DHT22;34221;45.296;9.516;2022-08-01T00:32:18;26.20;85.60
47813;DHT22;34221;45.296;9.516;2022-08-01T00:32:33;26.20;85.00
47813;DHT22;34221;45.296;9.516;2022-08-01T00:32:48;26.20;84.90
47813;DHT22;34221;45.296;9.516;2022-08-01T00:33:03;26.20;84.70
47813;DHT22;34221;45.296;9.516;2022-08-01T00:33:18;26.20;85.20
47813;DHT22;34221;45.296;9.516;2022-08-01T00:33:33;26.20;85.20
47813;DHT22;34221;45.296;9.516;2022-08-01T00:33:48;26.20;85.10
47813;DHT22;34221;45.296;9.516;2022-08-01T00:34:03;26.20;84.70
47813;DHT22;34221;45.296;9.516;2022-08-01T00:34:18;26.20;85.10
47813;DHT22;34221;45.296;9.516;2022-08-01T00:34:33;26.20;85.10
47813;DHT22;34221;45.296;9.516;2022-08-01T00:34:48;26.20;85.10
47813;DHT22;34221;45.296;9.516;2022-08-01T00:35:03;26.20;85.10
47813;DHT22;34221;45.296;9.516;2022-08-01T00:35:18;26.20;85.00
47813;DHT22;34221;45.296;9.516;2022-08-01T00:35:34;26.20;85.10
47813;DHT22;34221;45.296;9.516;2022-08-01T00:35:49;26.20;84.90
47813;DHT22;34221;45.296;9.516;2022-08-01T00:36:04;26.20;85.40
47813;DHT22;34221;45.296;9.516;2022-08-01T00:36:19;26.20;85.40
47813;DHT22;34221;45.296;9.516;2022-08-01T00:36:33;26.20;85.60
47813;DHT22;34221;45.296;9.516;2022-08-01T00:36:48;26.20;85.80
47813;DHT22;34221;45.296;9.516;2022-08-01T00:37:03;26.20;85.80
47813;DHT22;34221;45.296;9.516;2022-08-01T00:37:18;26.20;85.60
47813;DHT22;34221;45.296;9.516;2022-08-01T00:37:33;26.20;85.40
47813;DHT22;34221;45.296;9.516;2022-08-01T00:37:48;26.20;85.60
47813;DHT22;34221;45.296;9.516;2022-08-01T00:38:03;26.20;85.70
47813;DHT22;34221;45.296;9.516;2022-08-01T00:38:18;26.20;85.20
47813;DHT22;34221;45.296;9.516;2022-08-01T00:38:33;26.20;85.40
47813;DHT22;34221;45.296;9.516;2022-08-01T00:38:48;26.20;85.30
47813;DHT22;34221;45.296;9.516;2022-08-01T00:39:03;26.20;85.10
47813;DHT22;34221;45.296;9.516;2022-08-01T00:39:18;26.20;85.30
47813;DHT22;34221;45.296;9.516;2022-08-01T00:39:33;26.20;85.40
47813;DHT22;34221;45.296;9.516;2022-08-01T00:39:48;26.20;85.40
47813;DHT22;34221;45.296;9.516;2022-08-01T00:40:04;26.20;84.70
47813;DHT22;34221;45.296;9.516;2022-08-01T00:40:20;26.20;84.60
47813;DHT22;34221;45.296;9.516;2022-08-01T00:40:35;26.20;85.30
47813;DHT22;34221;45.296;9.516;2022-08-01T00:40:50;26.20;85.00
47813;DHT22;34221;45.296;9.516;2022-08-01T00:41:05;26.20;84.90
47813;DHT22;34221;45.296;9.516;2022-08-01T00:41:20;26.20;84.50
47813;DHT22;34221;45.296;9.516;2022-08-01T00:41:35;26.20;84.50
47813;DHT22;34221;45.296;9.516;2022-08-01T00:41:50;26.20;84.80
47813;DHT22;34221;45.296;9.516;2022-08-01T00:42:10;26.20;85.20
47813;DHT22;34221;45.296;9.516;2022-08-01T00:42:26;26.20;85.60
47813;DHT22;34221;45.296;9.516;2022-08-01T00:42:41;26.20;85.30
47813;DHT22;34221;45.296;9.516;2022-08-01T00:42:56;26.20;85.40
47813;DHT22;34221;45.296;9.516;2022-08-01T00:43:11;26.20;85.90
47813;DHT22;34221;45.296;9.516;2022-08-01T00:43:25;26.20;85.30
47813;DHT22;34221;45.296;9.516;2022-08-01T00:43:40;26.10;85.50
47813;DHT22;34221;45.296;9.516;2022-08-01T00:43:55;26.20;85.50
47813;DHT22;34221;45.296;9.516;2022-08-01T00:44:10;26.20;85.50
47813;DHT22;34221;45.296;9.516;2022-08-01T00:44:26;26.10;85.60
47813;DHT22;34221;45.296;9.516;2022-08-01T00:44:41;26.20;86.10
47813;DHT22;34221;45.296;9.516;2022-08-01T00:44:56;26.10;86.10
47813;DHT22;34221;45.296;9.516;2022-08-01T00:45:11;26.20;86.10
47813;DHT22;34221;45.296;9.516;2022-08-01T00:45:26;26.10;85.90
47813;DHT22;34221;45.296;9.516;2022-08-01T00:45:41;26.20;85.90
47813;DHT22;34221;45.296;9.516;2022-08-01T00:45:56;26.20;85.90
47813;DHT22;34221;45.296;9.516;2022-08-01T00:46:11;26.20;85.50
47813;DHT22;34221;45.296;9.516;2022-08-01T00:46:26;26.10;85.40
47813;DHT22;34221;45.296;9.516;2022-08-01T00:46:41;26.10;85.30
47813;DHT22;34221;45.296;9.516;2022-08-01T00:46:56;26.10;85.60
47813;DHT22;34221;45.296;9.516;2022-08-01T00:47:11;26.10;86.10
47813;DHT22;34221;45.296;9.516;2022-08-01T00:47:26;26.10;86.20
47813;DHT22;34221;45.296;9.516;2022-08-01T00:47:41;26.10;86.20
47813;DHT22;34221;45.296;9.516;2022-08-01T00:47:56;26.10;85.90
47813;DHT22;34221;45.296;9.516;2022-08-01T00:48:11;26.10;86.10
47813;DHT22;34221;45.296;9.516;2022-08-01T00:48:26;26.10;86.50
47813;DHT22;34221;45.296;9.516;2022-08-01T00:48:41;26.10;86.40
47813;DHT22;34221;45.296;9.516;2022-08-01T00:48:57;26.10;86.30
47813;DHT22;34221;45.296;9.516;2022-08-01T00:49:12;26.10;86.90
47813;DHT22;34221;45.296;9.516;2022-08-01T00:49:27;26.10;86.70
47813;DHT22;34221;45.296;9.516;2022-08-01T00:49:42;26.10;86.60
47813;DHT22;34221;45.296;9.516;2022-08-01T00:49:57;26.10;86.70
47813;DHT22;34221;45.296;9.516;2022-08-01T00:50:12;26.10;87.00
47813;DHT22;34221;45.296;9.516;2022-08-01T00:50:27;26.10;87.40
47813;DHT22;34221;45.296;9.516;2022-08-01T00:50:43;26.10;86.80
47813;DHT22;34221;45.296;9.516;2022-08-01T00:50:58;26.10;86.90
47813;DHT22;34221;45.296;9.516;2022-08-01T00:51:13;26.10;86.90
47813;DHT22;34221;45.296;9.516;2022-08-01T00:51:29;26.10;86.80
47813;DHT22;34221;45.296;9.516;2022-08-01T00:51:44;26.10;87.30
47813;DHT22;34221;45.296;9.516;2022-08-01T00:52:00;26.20;87.20
47813;DHT22;34221;45.296;9.516;2022-08-01T00:52:17;26.10;86.80
47813;DHT22;34221;45.296;9.516;2022-08-01T00:52:33;26.10;86.50
47813;DHT22;34221;45.296;9.516;2022-08-01T00:52:49;26.10;87.00
47813;DHT22;34221;45.296;9.516;2022-08-01T00:53:05;26.10;87.00
47813;DHT22;34221;45.296;9.516;2022-08-01T00:53:20;26.10;86.90
47813;DHT22;34221;45.296;9.516;2022-08-01T00:53:36;26.10;86.80
47813;DHT22;34221;45.296;9.516;2022-08-01T00:53:51;26.10;87.20
47813;DHT22;34221;45.296;9.516;2022-08-01T00:54:06;26.10;87.50
47813;DHT22;34221;45.296;9.516;2022-08-01T00:54:23;26.10;87.30
47813;DHT22;34221;45.296;9.516;2022-08-01T00:54:40;26.10;87.00
47813;DHT22;34221;45.296;9.516;2022-08-01T00:54:55;26.10;87.10
47813;DHT22;34221;45.296;9.516;2022-08-01T00:55:11;26.10;86.80
47813;DHT22;34221;45.296;9.516;2022-08-01T00:55:28;26.10;87.10
47813;DHT22;34221;45.296;9.516;2022-08-01T00:55:43;26.10;87.10
47813;DHT22;34221;45.296;9.516;2022-08-01T00:55:58;26.10;86.90
47813;DHT22;34221;45.296;9.516;2022-08-01T00:56:14;26.10;87.10
47813;DHT22;34221;45.296;9.516;2022-08-01T00:56:29;26.10;87.30
47813;DHT22;34221;45.296;9.516;2022-08-01T00:56:44;26.10;87.20
47813;DHT22;34221;45.296;9.516;2022-08-01T00:57:00;26.10;87.30
47813;DHT22;34221;45.296;9.516;2022-08-01T00:57:15;26.10;87.30
47813;DHT22;34221;45.296;9.516;2022-08-01T00:57:30;26.10;87.30
47813;DHT22;34221;45.296;9.516;2022-08-01T00:57:47;26.10;87.20
47813;DHT22;34221;45.296;9.516;2022-08-01T00:58:03;26.10;87.40
47813;DHT22;34221;45.296;9.516;2022-08-01T00:58:18;26.10;87.40
47813;DHT22;34221;45.296;9.516;2022-08-01T00:58:33;26.10;88.00
47813;DHT22;34221;45.296;9.516;2022-08-01T00:58:48;26.00;87.90
47813;DHT22;34221;45.296;9.516;2022-08-01T00:59:03;26.00;87.80
47813;DHT22;34221;45.296;9.516;2022-08-01T00:59:21;26.00;87.60
47813;DHT22;34221;45.296;9.516;2022-08-01T00:59:37;26.00;87.60
47813;DHT22;34221;45.296;9.516;2022-08-01T00:59:52;26.00;87.60
47813;DHT22;34221;45.296;9.516;2022-08-01T01:00:08;26.00;87.50
47813;DHT22;34221;45.296;9.516;2022-08-01T01:00:23;26.00;87.60
47813;DHT22;34221;45.296;9.516;2022-08-01T01:00:38;26.00;87.60
47813;DHT22;34221;45.296;9.516;2022-08-01T01:00:53;26.00;87.40
47813;DHT22;34221;45.296;9.516;2022-08-01T01:01:09;26.00;87.40
47813;DHT22;34221;45.296;9.516;2022-08-01T01:01:24;26.00;87.70
47813;DHT22;34221;45.296;9.516;2022-08-01T01:01:39;26.00;88.10
47813;DHT22;34221;45.296;9.516;2022-08-01T01:01:55;26.00;87.80
47813;DHT22;34221;45.296;9.516;2022-08-01T01:02:10;26.00;87.90
47813;DHT22;34221;45.296;9.516;2022-08-01T01:02:25;26.00;88.10
47813;DHT22;34221;45.296;9.516;2022-08-01T01:02:40;26.00;88.10
47813;DHT22;34221;45.296;9.516;2022-08-01T01:02:54;26.00;88.10
47813;DHT22;34221;45.296;9.516;2022-08-01T01:03:09;26.00;88.30
47813;DHT22;34221;45.296;9.516;2022-08-01T01:03:24;26.00;88.10
47813;DHT22;34221;45.296;9.516;2022-08-01T01:03:58;26.00;88.20
47813;DHT22;34221;45.296;9.516;2022-08-01T01:04:13;26.00;88.00
47813;DHT22;34221;45.296;9.516;2022-08-01T01:04:29;26.00;88.20
47813;DHT22;34221;45.296;9.516;2022-08-01T01:04:44;26.00;88.00
47813;DHT22;34221;45.296;9.516;2022-08-01T01:04:59;26.00;88.00
47813;DHT22;34221;45.296;9.516;2022-08-01T01:05:14;26.00;87.60
47813;DHT22;34221;45.296;9.516;2022-08-01T01:05:29;26.00;87.90
47813;DHT22;34221;45.296;9.516;2022-08-01T01:06:18;26.00;88.10
47813;DHT22;34221;45.296;9.516;2022-08-01T01:07:34;26.00;87.90
47813;DHT22;34221;45.296;9.516;2022-08-01T01:08:07;26.00;88.10
47813;DHT22;34221;45.296;9.516;2022-08-01T01:08:29;26.00;87.80
47813;DHT22;34221;45.296;9.516;2022-08-01T01:08:55;26.00;88.20
47813;DHT22;34221;45.296;9.516;2022-08-01T01:11:13;25.90;88.40
47813;DHT22;34221;45.296;9.516;2022-08-01T01:11:29;25.90;88.50
47813;DHT22;34221;45.296;9.516;2022-08-01T01:13:05;25.90;88.90
47813;DHT22;34221;45.296;9.516;2022-08-01T01:13:43;26.00;88.80
47813;DHT22;34221;45.296;9.516;2022-08-01T01:14:05;26.00;88.80
47813;DHT22;34221;45.296;9.516;2022-08-01T01:14:38;26.00;88.50
47813;DHT22;34221;45.296;9.516;2022-08-01T01:15:21;26.00;88.60
47813;DHT22;34221;45.296;9.516;2022-08-01T01:15:47;25.90;88.70
47813;DHT22;34221;45.296;9.516;2022-08-01T01:16:15;25.90;88.60
47813;DHT22;34221;45.296;9.516;2022-08-01T01:16:33;25.90;88.60
47813;DHT22;34221;45.296;9.516;2022-08-01T01:16:51;25.90;88.70
47813;DHT22;34221;45.296;9.516;2022-08-01T01:17:08;25.90;88.80
47813;DHT22;34221;45.296;9.516;2022-08-01T01:18:25;25.90;88.70
47813;DHT22;34221;45.296;9.516;2022-08-01T01:18:49;25.90;88.90
47813;DHT22;34221;45.296;9.516;2022-08-01T01:19:13;25.90;88.90
47813;DHT22;34221;45.296;9.516;2022-08-01T01:19:30;25.90;88.80
47813;DHT22;34221;45.296;9.516;2022-08-01T01:19:51;25.90;88.90
47813;DHT22;34221;45.296;9.516;2022-08-01T01:20:12;25.90;89.10
47813;DHT22;34221;45.296;9.516;2022-08-01T01:20:32;25.90;89.00
47813;DHT22;34221;45.296;9.516;2022-08-01T01:22:14;25.90;89.20
47813;DHT22;34221;45.296;9.516;2022-08-01T01:23:44;25.80;89.30
47813;DHT22;34221;45.296;9.516;2022-08-01T01:26:59;25.80;89.70
47813;DHT22;34221;45.296;9.516;2022-08-01T01:30:07;25.80;90.00
47813;DHT22;34221;45.296;9.516;2022-08-01T01:30:24;25.70;90.10
47813;DHT22;34221;45.296;9.516;2022-08-01T01:30:41;25.70;90.00
47813;DHT22;34221;45.296;9.516;2022-08-01T01:30:58;25.70;90.00
47813;DHT22;34221;45.296;9.516;2022-08-01T01:31:15;25.70;90.20
47813;DHT22;34221;45.296;9.516;2022-08-01T01:31:35;25.70;90.20
47813;DHT22;34221;45.296;9.516;2022-08-01T01:32:04;25.70;90.10
47813;DHT22;34221;45.296;9.516;2022-08-01T01:32:43;25.70;90.20
47813;DHT22;34221;45.296;9.516;2022-08-01T01:33:04;25.70;90.20
47813;DHT22;34221;45.296;9.516;2022-08-01T01:33:22;25.70;90.20
47813;DHT22;34221;45.296;9.516;2022-08-01T01:33:42;25.70;90.10
47813;DHT22;34221;45.296;9.516;2022-08-01T01:33:59;25.70;90.30
47813;DHT22;34221;45.296;9.516;2022-08-01T01:34:17;25.70;90.10
47813;DHT22;34221;45.296;9.516;2022-08-01T01:34:37;25.70;90.10
47813;DHT22;34221;45.296;9.516;2022-08-01T01:34:54;25.60;90.10
47813;DHT22;34221;45.296;9.516;2022-08-01T01:35:30;25.70;90.10
47813;DHT22;34221;45.296;9.516;2022-08-01T01:35:51;25.60;90.10
47813;DHT22;34221;45.296;9.516;2022-08-01T01:36:09;25.60;90.40
47813;DHT22;34221;45.296;9.516;2022-08-01T01:36:26;25.60;90.40
47813;DHT22;34221;45.296;9.516;2022-08-01T01:36:43;25.60;90.60
47813;DHT22;34221;45.296;9.516;2022-08-01T01:36:59;25.60;90.50
47813;DHT22;34221;45.296;9.516;2022-08-01T01:37:18;25.60;90.40
47813;DHT22;34221;45.296;9.516;2022-08-01T01:37:35;25.60;90.40
47813;DHT22;34221;45.296;9.516;2022-08-01T01:38:07;25.60;90.30
47813;DHT22;34221;45.296;9.516;2022-08-01T01:38:28;25.60;90.70
47813;DHT22;34221;45.296;9.516;2022-08-01T01:38:47;25.60;90.70
47813;DHT22;34221;45.296;9.516;2022-08-01T01:39:02;25.60;90.80
47813;DHT22;34221;45.296;9.516;2022-08-01T01:39:18;25.60;90.90
47813;DHT22;34221;45.296;9.516;2022-08-01T01:39:35;25.60;90.70
47813;DHT22;34221;45.296;9.516;2022-08-01T01:39:52;25.60;90.80
47813;DHT22;34221;45.296;9.516;2022-08-01T01:40:09;25.50;90.90
47813;DHT22;34221;45.296;9.516;2022-08-01T01:40:26;25.50;91.00
47813;DHT22;34221;45.296;9.516;2022-08-01T01:40:42;25.50;91.00
47813;DHT22;34221;45.296;9.516;2022-08-01T01:40:58;25.50;91.10
47813;DHT22;34221;45.296;9.516;2022-08-01T01:41:17;25.60;90.90
47813;DHT22;34221;45.296;9.516;2022-08-01T01:41:33;25.60;90.90
47813;DHT22;34221;45.296;9.516;2022-08-01T01:41:51;25.50;90.90
47813;DHT22;34221;45.296;9.516;2022-08-01T01:42:08;25.50;90.90
47813;DHT22;34221;45.296;9.516;2022-08-01T01:42:25;25.50;90.70
47813;DHT22;34221;45.296;9.516;2022-08-01T01:42:42;25.50;90.70
47813;DHT22;34221;45.296;9.516;2022-08-01T01:42:58;25.50;90.60
47813;DHT22;34221;45.296;9.516;2022-08-01T01:43:14;25.50;90.50
47813;DHT22;34221;45.296;9.516;2022-08-01T01:43:32;25.50;90.50
47813;DHT22;34221;45.296;9.516;2022-08-01T01:43:48;25.50;90.50
47813;DHT22;34221;45.296;9.516;2022-08-01T01:44:05;25.50;90.50
47813;DHT22;34221;45.296;9.516;2022-08-01T01:44:22;25.50;90.50
47813;DHT22;34221;45.296;9.516;2022-08-01T01:44:39;25.50;90.50
47813;DHT22;34221;45.296;9.516;2022-08-01T01:44:54;25.50;90.60
47813;DHT22;34221;45.296;9.516;2022-08-01T01:45:10;25.50;90.60
47813;DHT22;34221;45.296;9.516;2022-08-01T01:45:26;25.50;90.60
47813;DHT22;34221;45.296;9.516;2022-08-01T01:45:42;25.50;90.60
47813;DHT22;34221;45.296;9.516;2022-08-01T01:46:01;25.40;90.70
47813;DHT22;34221;45.296;9.516;2022-08-01T01:46:20;25.40;90.70
47813;DHT22;34221;45.296;9.516;2022-08-01T01:46:42;25.40;90.70
47813;DHT22;34221;45.296;9.516;2022-08-01T01:46:58;25.40;90.80
47813;DHT22;34221;45.296;9.516;2022-08-01T01:47:14;25.40;90.90
47813;DHT22;34221;45.296;9.516;2022-08-01T01:47:32;25.40;90.90
47813;DHT22;34221;45.296;9.516;2022-08-01T01:47:48;25.40;90.90
47813;DHT22;34221;45.296;9.516;2022-08-01T01:48:03;25.40;91.00
47813;DHT22;34221;45.296;9.516;2022-08-01T01:48:20;25.40;91.00
47813;DHT22;34221;45.296;9.516;2022-08-01T01:48:36;25.40;91.10
47813;DHT22;34221;45.296;9.516;2022-08-01T01:48:54;25.40;91.20
47813;DHT22;34221;45.296;9.516;2022-08-01T01:49:11;25.40;91.20
47813;DHT22;34221;45.296;9.516;2022-08-01T01:49:28;25.40;91.20
47813;DHT22;34221;45.296;9.516;2022-08-01T01:49:46;25.40;91.10
47813;DHT22;34221;45.296;9.516;2022-08-01T01:50:21;25.40;91.20
47813;DHT22;34221;45.296;9.516;2022-08-01T01:50:39;25.40;91.20
47813;DHT22;34221;45.296;9.516;2022-08-01T01:50:54;25.40;91.10
47813;DHT22;34221;45.296;9.516;2022-08-01T01:51:12;25.40;91.10
47813;DHT22;34221;45.296;9.516;2022-08-01T01:51:28;25.30;91.10
47813;DHT22;34221;45.296;9.516;2022-08-01T01:51:44;25.40;91.20
47813;DHT22;34221;45.296;9.516;2022-08-01T01:52:02;25.30;91.10
47813;DHT22;34221;45.296;9.516;2022-08-01T01:52:18;25.30;91.20
47813;DHT22;34221;45.296;9.516;2022-08-01T01:52:34;25.30;91.20
47813;DHT22;34221;45.296;9.516;2022-08-01T01:52:50;25.30;91.20
47813;DHT22;34221;45.296;9.516;2022-08-01T01:53:06;25.30;91.20
47813;DHT22;34221;45.296;9.516;2022-08-01T01:53:22;25.30;91.30
47813;DHT22;34221;45.296;9.516;2022-08-01T01:53:39;25.30;91.20
47813;DHT22;34221;45.296;9.516;2022-08-01T01:53:56;25.30;91.30
47813;DHT22;34221;45.296;9.516;2022-08-01T01:54:12;25.30;91.30
47813;DHT22;34221;45.296;9.516;2022-08-01T01:54:32;25.30;91.30
47813;DHT22;34221;45.296;9.516;2022-08-01T01:54:51;25.30;91.60
47813;DHT22;34221;45.296;9.516;2022-08-01T01:55:08;25.30;91.30
47813;DHT22;34221;45.296;9.516;2022-08-01T01:55:24;25.30;91.30
47813;DHT22;34221;45.296;9.516;2022-08-01T01:55:43;25.30;91.50
47813;DHT22;34221;45.296;9.516;2022-08-01T01:56:01;25.30;91.40
47813;DHT22;34221;45.296;9.516;2022-08-01T01:56:19;25.30;91.40
47813;DHT22;34221;45.296;9.516;2022-08-01T01:56:35;25.30;91.50
47813;DHT22;34221;45.296;9.516;2022-08-01T01:57:04;25.30;91.60
47813;DHT22;34221;45.296;9.516;2022-08-01T01:57:22;25.30;91.60
47813;DHT22;34221;45.296;9.516;2022-08-01T01:57:41;25.20;91.60
47813;DHT22;34221;45.296;9.516;2022-08-01T01:57:57;25.20;91.60
47813;DHT22;34221;45.296;9.516;2022-08-01T01:58:15;25.20;91.60
47813;DHT22;34221;45.296;9.516;2022-08-01T01:58:33;25.20;91.60
47813;DHT22;34221;45.296;9.516;2022-08-01T01:58:51;25.20;91.60
47813;DHT22;34221;45.296;9.516;2022-08-01T01:59:08;25.20;91.70
47813;DHT22;34221;45.296;9.516;2022-08-01T01:59:25;25.20;91.80
47813;DHT22;34221;45.296;9.516;2022-08-01T01:59:44;25.20;91.70
47813;DHT22;34221;45.296;9.516;2022-08-01T02:00:01;25.20;91.80
47813;DHT22;34221;45.296;9.516;2022-08-01T02:00:19;25.20;91.90
47813;DHT22;34221;45.296;9.516;2022-08-01T02:00:37;25.20;91.90
47813;DHT22;34221;45.296;9.516;2022-08-01T02:00:55;25.20;92.00